createdAt,value
2023-05-18T00:00:05.883Z,87.71
2023-05-18T00:02:32.748Z,88.35
2023-05-18T00:05:02.449Z,88.87
2023-05-18T00:07:34.454Z,88.94
2023-05-18T00:10:02.014Z,90.18
2023-05-18T00:12:28.992Z,89.58
2023-05-18T00:14:55.774Z,89.28
2023-05-18T00:17:22.572Z,89.94
2023-05-18T00:19:50.550Z,90.53
2023-05-18T00:22:20.333Z,89.95
2023-05-18T00:24:47.945Z,90.53
2023-05-18T00:27:15.209Z,91.21
2023-05-18T00:29:41.957Z,90.76
2023-05-18T00:32:08.686Z,91.67
2023-05-18T00:34:35.543Z,91.23
2023-05-18T00:37:02.491Z,90.81
2023-05-18T00:39:29.250Z,91.57
2023-05-18T00:41:56.081Z,91.97
2023-05-18T00:44:22.824Z,90.95
2023-05-18T00:46:50.350Z,90.16
2023-05-18T00:49:17.774Z,92.33
2023-05-18T00:51:45.842Z,93.09
2023-05-18T00:54:12.564Z,92.80
2023-05-18T00:56:42.637Z,93.46
2023-05-18T00:59:12.588Z,93.34
2023-05-18T01:01:44.271Z,91.84
2023-05-18T01:04:14.721Z,91.96
2023-05-18T01:06:42.407Z,92.09
2023-05-18T01:09:12.009Z,92.01
2023-05-18T01:12:07.977Z,91.57
2023-05-18T01:14:38.478Z,92.55
2023-05-18T01:17:36.745Z,93.02
2023-05-18T01:20:18.050Z,92.85
2023-05-18T01:23:15.252Z,93.51
2023-05-18T01:26:30.645Z,92.88
2023-05-18T01:28:59.593Z,93.14
2023-05-18T01:31:27.289Z,93.60
2023-05-18T01:33:54.073Z,93.54
2023-05-18T01:36:21.081Z,93.94
2023-05-18T01:38:48.129Z,93.18
2023-05-18T01:41:28.972Z,93.50
2023-05-18T01:44:20.048Z,93.98
2023-05-18T01:47:10.933Z,93.63
2023-05-18T01:49:46.728Z,95.90
2023-05-18T01:52:21.936Z,94.75
2023-05-18T01:54:51.979Z,94.59
2023-05-18T01:57:20.769Z,94.82
2023-05-18T01:59:48.206Z,95.26
2023-05-18T02:02:15.124Z,94.55
2023-05-18T02:04:41.941Z,93.93
2023-05-18T02:07:08.925Z,93.52
2023-05-18T02:09:35.647Z,93.66
2023-05-18T02:12:02.846Z,93.95
2023-05-18T02:14:29.629Z,95.30
2023-05-18T02:16:57.753Z,94.66
2023-05-18T02:19:25.714Z,94.47
2023-05-18T02:21:52.520Z,96.46
2023-05-18T02:24:19.252Z,96.18
2023-05-18T02:26:46.214Z,96.50
2023-05-18T02:29:14.810Z,96.03
2023-05-18T02:31:41.923Z,96.38
2023-05-18T02:34:09.389Z,95.57
2023-05-18T02:36:43.097Z,96.54
2023-05-18T02:39:10.688Z,96.34
2023-05-18T02:41:37.699Z,95.75
2023-05-18T02:44:05.042Z,95.43
2023-05-18T02:46:32.377Z,96.08
2023-05-18T02:49:00.076Z,96.81
2023-05-18T02:51:26.988Z,97.09
2023-05-18T02:53:53.932Z,95.97
2023-05-18T02:56:20.643Z,95.69
2023-05-18T02:58:47.709Z,96.56
2023-05-18T03:01:14.486Z,96.17
2023-05-18T03:03:42.596Z,97.55
2023-05-18T03:06:09.723Z,97.63
2023-05-18T03:08:41.764Z,97.51
2023-05-18T03:11:08.497Z,97.42
2023-05-18T03:13:35.359Z,97.63
2023-05-18T03:16:02.052Z,97.14
2023-05-18T03:18:28.747Z,97.21
2023-05-18T03:20:56.469Z,96.80
2023-05-18T03:23:23.645Z,97.01
2023-05-18T03:25:55.565Z,97.68
2023-05-18T03:28:22.807Z,97.98
2023-05-18T03:30:49.803Z,97.76
2023-05-18T03:33:17.067Z,97.30
2023-05-18T03:35:44.735Z,97.37
2023-05-18T03:38:12.229Z,97.49
2023-05-18T03:40:39.026Z,97.54
2023-05-18T03:43:05.856Z,97.57
2023-05-18T03:45:32.736Z,97.35
2023-05-18T03:47:59.706Z,97.88
2023-05-18T03:50:26.571Z,97.40
2023-05-18T03:52:53.438Z,97.63
2023-05-18T03:55:21.704Z,97.17
2023-05-18T03:57:49.073Z,97.42
2023-05-18T04:00:16.383Z,98.40
2023-05-18T04:02:43.347Z,99.01
2023-05-18T04:05:10.532Z,99.74
2023-05-18T04:07:44.429Z,99.60
2023-05-18T04:10:12.361Z,98.60
2023-05-18T04:12:39.742Z,97.45
2023-05-18T04:15:07.244Z,97.60
2023-05-18T04:17:35.808Z,97.49
2023-05-18T04:20:13.347Z,97.73
2023-05-18T04:22:46.875Z,98.32
2023-05-18T04:25:14.831Z,97.95
2023-05-18T04:27:42.470Z,98.00
2023-05-18T04:30:11.789Z,98.74
2023-05-18T04:32:39.061Z,98.98
2023-05-18T04:35:07.312Z,99.22
2023-05-18T04:37:34.551Z,99.46
2023-05-18T04:40:02.623Z,99.72
2023-05-18T04:42:29.525Z,100.00
2023-05-18T04:44:56.304Z,98.96
2023-05-18T04:47:24.282Z,99.49
2023-05-18T04:49:52.687Z,98.39
2023-05-18T04:52:20.064Z,98.04
2023-05-18T04:54:46.887Z,97.89
2023-05-18T04:57:14.023Z,98.36
2023-05-18T04:59:41.721Z,98.36
2023-05-18T05:02:08.588Z,98.15
2023-05-18T05:04:35.500Z,97.37
2023-05-18T05:07:02.208Z,96.88
2023-05-18T05:09:32.105Z,96.97
2023-05-18T05:11:58.835Z,97.26
2023-05-18T05:14:25.552Z,97.29
2023-05-18T05:16:52.625Z,97.48
2023-05-18T05:19:19.772Z,97.52
2023-05-18T05:21:46.617Z,97.31
2023-05-18T05:24:13.508Z,98.13
2023-05-18T05:26:40.688Z,97.83
2023-05-18T05:29:07.551Z,97.21
2023-05-18T05:31:34.998Z,96.27
2023-05-18T05:34:02.085Z,94.63
2023-05-18T05:36:29.260Z,94.14
2023-05-18T05:38:56.314Z,95.67
2023-05-18T05:41:23.472Z,95.13
2023-05-18T05:43:50.220Z,92.37
2023-05-18T05:46:17.956Z,91.45
2023-05-18T05:48:44.804Z,91.60
2023-05-18T05:51:12.326Z,91.88
2023-05-18T05:53:39.075Z,90.99
2023-05-18T05:56:08.174Z,89.68
2023-05-18T05:58:34.974Z,90.81
2023-05-18T06:01:02.099Z,90.22
2023-05-18T06:03:29.629Z,89.99
2023-05-18T06:05:56.944Z,90.49
2023-05-18T06:08:24.617Z,91.28
2023-05-18T06:10:51.636Z,92.66
2023-05-18T06:13:18.662Z,91.57
2023-05-18T06:15:45.351Z,91.43
2023-05-18T06:18:13.580Z,90.39
2023-05-18T06:20:40.905Z,91.00
2023-05-18T06:23:07.626Z,89.44
2023-05-18T06:25:35.608Z,89.90
2023-05-18T06:28:02.366Z,91.55
2023-05-18T06:30:29.166Z,89.47
2023-05-18T06:32:56.143Z,88.13
2023-05-18T06:35:24.295Z,88.08
2023-05-18T06:37:51.231Z,88.58
2023-05-18T06:40:18.153Z,89.17
2023-05-18T06:42:44.957Z,87.79
2023-05-18T06:45:12.325Z,88.42
2023-05-18T06:47:39.228Z,86.82
2023-05-18T06:50:06.725Z,87.50
2023-05-18T06:52:33.745Z,87.40
2023-05-18T06:55:01.603Z,87.41
2023-05-18T06:57:28.659Z,86.21
2023-05-18T06:59:55.503Z,86.12
2023-05-18T07:02:22.542Z,85.26
2023-05-18T07:04:49.874Z,85.00
2023-05-18T07:07:20.517Z,86.44
2023-05-18T07:09:50.055Z,84.71
2023-05-18T07:12:16.788Z,83.51
2023-05-18T07:14:43.604Z,83.18
2023-05-18T07:17:10.384Z,83.66
2023-05-18T07:19:37.270Z,83.89
2023-05-18T07:22:04.895Z,82.55
2023-05-18T07:24:31.869Z,82.37
2023-05-18T07:27:00.761Z,82.14
2023-05-18T07:29:27.987Z,81.71
2023-05-18T07:31:54.875Z,81.17
2023-05-18T07:34:21.924Z,81.31
2023-05-18T07:36:48.750Z,83.17
2023-05-18T07:39:19.488Z,79.10
2023-05-18T07:41:47.604Z,78.50
2023-05-18T07:44:14.820Z,78.20
2023-05-18T07:46:42.325Z,78.31
2023-05-18T07:49:09.122Z,78.87
2023-05-18T07:51:35.955Z,79.76
2023-05-18T07:54:02.936Z,78.03
2023-05-18T07:56:29.747Z,78.51
2023-05-18T07:58:56.558Z,77.56
2023-05-18T08:01:27.599Z,77.32
2023-05-18T08:03:54.919Z,78.02
2023-05-18T08:06:21.772Z,76.78
2023-05-18T08:08:48.781Z,77.63
2023-05-18T08:11:15.576Z,77.94
2023-05-18T08:13:42.542Z,77.19
2023-05-18T08:16:12.158Z,76.86
2023-05-18T08:18:39.672Z,76.35
2023-05-18T08:21:09.347Z,75.40
2023-05-18T08:23:36.975Z,76.13
2023-05-18T08:26:03.852Z,73.74
2023-05-18T08:28:31.350Z,75.06
2023-05-18T08:30:58.461Z,75.73
2023-05-18T08:33:26.247Z,75.62
2023-05-18T08:35:54.420Z,71.93
2023-05-18T08:38:21.302Z,73.25
2023-05-18T08:40:59.952Z,73.81
2023-05-18T08:43:33.829Z,73.20
2023-05-18T08:46:33.777Z,71.84
2023-05-18T08:49:02.497Z,71.82
2023-05-18T08:51:32.147Z,72.62
2023-05-18T08:53:59.389Z,69.27
2023-05-18T08:56:29.346Z,69.89
2023-05-18T08:58:56.933Z,69.87
2023-05-18T09:01:30.315Z,72.37
2023-05-18T09:03:58.385Z,70.64
2023-05-18T09:06:25.206Z,68.67
2023-05-18T09:08:53.576Z,68.89
2023-05-18T09:11:21.865Z,70.26
2023-05-18T09:13:51.849Z,67.08
2023-05-18T09:16:21.666Z,68.06
2023-05-18T09:18:48.541Z,66.25
2023-05-18T09:21:15.555Z,66.74
2023-05-18T09:23:44.492Z,65.75
2023-05-18T09:26:12.975Z,65.45
2023-05-18T09:28:42.096Z,65.07
2023-05-18T09:31:12.884Z,63.35
2023-05-18T09:33:40.585Z,64.42
2023-05-18T09:36:08.605Z,63.45
2023-05-18T09:38:39.694Z,64.45
2023-05-18T09:41:15.286Z,66.21
2023-05-18T09:43:44.003Z,63.74
2023-05-18T09:46:12.479Z,65.99
2023-05-18T09:48:45.469Z,62.71
2023-05-18T09:51:19.101Z,63.06
2023-05-18T09:53:49.694Z,63.71
2023-05-18T09:56:17.934Z,64.57
2023-05-18T09:58:45.930Z,61.31
2023-05-18T10:01:12.812Z,63.21
2023-05-18T10:03:39.908Z,60.86
2023-05-18T10:06:08.405Z,60.54
2023-05-18T10:08:36.266Z,58.85
2023-05-18T10:11:04.077Z,57.24
2023-05-18T10:13:32.166Z,55.98
2023-05-18T10:16:00.763Z,58.14
2023-05-18T10:18:29.588Z,58.08
2023-05-18T10:21:00.363Z,59.92
2023-05-18T10:23:29.832Z,59.47
2023-05-18T10:25:57.540Z,60.51
2023-05-18T10:28:28.924Z,58.44
2023-05-18T10:30:57.780Z,58.14
2023-05-18T10:33:29.656Z,57.21
2023-05-18T10:35:57.506Z,58.27
2023-05-18T10:38:26.735Z,57.99
2023-05-18T10:40:56.558Z,59.24
2023-05-18T10:43:28.166Z,59.71
2023-05-18T10:45:57.446Z,59.56
2023-05-18T10:48:25.952Z,60.19
2023-05-18T10:50:54.130Z,58.88
2023-05-18T10:53:32.405Z,59.18
2023-05-18T10:55:59.648Z,58.63
2023-05-18T10:58:27.594Z,57.64
2023-05-18T11:00:56.654Z,58.34
2023-05-18T11:03:25.992Z,58.54
2023-05-18T11:06:11.155Z,58.96
2023-05-18T11:08:49.491Z,58.11
2023-05-18T11:11:18.957Z,57.95
2023-05-18T11:13:49.013Z,56.97
2023-05-18T11:16:17.017Z,56.22
2023-05-18T11:18:52.194Z,57.65
2023-05-18T11:21:42.949Z,57.13
2023-05-18T11:24:18.790Z,57.85
2023-05-18T11:26:47.904Z,57.50
2023-05-18T11:29:40.845Z,56.54
2023-05-18T11:32:29.949Z,56.46
2023-05-18T11:34:56.967Z,55.88
2023-05-18T11:38:06.889Z,56.79
2023-05-18T11:40:50.124Z,56.04
2023-05-18T11:43:26.603Z,57.54
2023-05-18T11:45:57.305Z,56.11
2023-05-18T11:48:27.728Z,55.91
2023-05-18T11:50:57.878Z,56.54
2023-05-18T11:53:26.164Z,56.27
2023-05-18T11:55:59.749Z,55.52
2023-05-18T11:58:26.789Z,54.22
2023-05-18T12:00:54.692Z,55.20
2023-05-18T12:03:27.646Z,54.63
2023-05-18T12:05:58.396Z,52.71
2023-05-18T12:08:29.801Z,52.23
2023-05-18T12:10:57.692Z,51.74
2023-05-18T12:13:24.623Z,52.92
2023-05-18T12:15:52.339Z,53.25
2023-05-18T12:18:19.431Z,53.07
2023-05-18T12:20:48.201Z,54.15
2023-05-18T12:23:14.960Z,54.86
2023-05-18T12:25:41.723Z,54.08
2023-05-18T12:28:08.567Z,53.53
2023-05-18T12:30:36.313Z,52.53
2023-05-18T12:33:03.733Z,51.90
2023-05-18T12:35:31.522Z,52.78
2023-05-18T12:38:03.137Z,52.23
2023-05-18T12:40:44.893Z,51.95
2023-05-18T12:43:11.817Z,52.70
2023-05-18T12:45:38.736Z,51.55
2023-05-18T12:48:07.125Z,52.41
2023-05-18T12:50:35.126Z,52.92
2023-05-18T12:53:02.081Z,51.78
2023-05-18T12:55:31.340Z,51.25
2023-05-18T12:58:03.391Z,52.36
2023-05-18T13:00:34.073Z,53.07
2023-05-18T13:03:08.894Z,51.20
2023-05-18T13:05:37.477Z,50.72
2023-05-18T13:08:04.382Z,50.45
2023-05-18T13:10:35.171Z,51.99
2023-05-18T13:13:04.056Z,52.58
2023-05-18T13:15:36.006Z,51.25
2023-05-18T13:18:10.740Z,51.38
2023-05-18T13:20:50.003Z,51.93
2023-05-18T13:23:21.932Z,51.60
2023-05-18T13:25:49.219Z,52.15
2023-05-18T13:28:17.561Z,52.45
2023-05-18T13:30:45.392Z,51.86
2023-05-18T13:33:12.550Z,52.96
2023-05-18T13:35:44.739Z,51.50
2023-05-18T13:38:13.522Z,51.82
2023-05-18T13:40:41.450Z,50.59
2023-05-18T13:43:09.488Z,49.54
2023-05-18T13:45:37.846Z,50.31
2023-05-18T13:48:10.111Z,50.39
2023-05-18T13:50:38.032Z,50.52
2023-05-18T13:53:05.178Z,49.30
2023-05-18T13:55:33.695Z,49.90
2023-05-18T13:58:01.178Z,50.12
2023-05-18T14:00:28.372Z,51.18
2023-05-18T14:02:55.486Z,48.67
2023-05-18T14:05:22.605Z,48.81
2023-05-18T14:07:49.369Z,49.28
2023-05-18T14:10:16.089Z,48.26
2023-05-18T14:12:42.967Z,49.78
2023-05-18T14:15:10.747Z,49.31
2023-05-18T14:17:38.508Z,50.44
2023-05-18T14:20:06.374Z,48.73
2023-05-18T14:22:33.384Z,47.63
2023-05-18T14:25:01.133Z,47.83
2023-05-18T14:27:28.515Z,48.78
2023-05-18T14:29:55.579Z,48.33
2023-05-18T14:32:22.524Z,48.42
2023-05-18T14:34:52.195Z,48.22
2023-05-18T14:37:19.235Z,48.13
2023-05-18T14:39:46.046Z,48.09
2023-05-18T14:42:12.788Z,48.30
2023-05-18T14:44:39.595Z,49.33
2023-05-18T14:47:06.729Z,47.74
2023-05-18T14:49:33.729Z,48.27
2023-05-18T14:52:00.506Z,49.52
2023-05-18T14:54:27.278Z,50.09
2023-05-18T14:56:54.260Z,49.75
2023-05-18T14:59:21.704Z,48.78
2023-05-18T15:01:48.631Z,48.99
2023-05-18T15:04:15.478Z,49.25
2023-05-18T15:06:42.269Z,48.75
2023-05-18T15:09:10.186Z,49.74
2023-05-18T15:11:36.895Z,49.45
2023-05-18T15:14:03.710Z,48.96
2023-05-18T15:16:30.529Z,48.45
2023-05-18T15:18:57.502Z,48.61
2023-05-18T15:21:24.328Z,47.51
2023-05-18T15:23:51.212Z,46.63
2023-05-18T15:26:18.087Z,45.08
2023-05-18T15:28:45.270Z,45.57
2023-05-18T15:31:12.147Z,45.96
2023-05-18T15:33:42.744Z,46.59
2023-05-18T15:36:09.961Z,47.51
2023-05-18T15:38:36.880Z,46.88
2023-05-18T15:41:03.671Z,46.87
2023-05-18T15:43:30.984Z,47.40
2023-05-18T15:45:58.908Z,46.14
2023-05-18T15:48:26.052Z,47.74
2023-05-18T15:50:52.865Z,46.72
2023-05-18T15:53:19.735Z,46.57
2023-05-18T15:55:46.764Z,46.13
2023-05-18T15:58:13.749Z,46.70
2023-05-18T16:00:40.512Z,46.78
2023-05-18T16:03:07.795Z,47.30
2023-05-18T16:05:34.577Z,47.82
2023-05-18T16:08:01.650Z,47.86
2023-05-18T16:10:28.453Z,49.03
2023-05-18T16:12:55.257Z,49.60
2023-05-18T16:15:25.043Z,49.16
2023-05-18T16:17:51.839Z,49.07
2023-05-18T16:20:18.812Z,49.07
2023-05-18T16:22:47.044Z,48.93
2023-05-18T16:25:13.840Z,48.37
2023-05-18T16:27:40.604Z,48.29
2023-05-18T16:30:08.298Z,47.95
2023-05-18T16:32:35.034Z,49.25
2023-05-18T16:35:03.371Z,49.02
2023-05-18T16:37:31.144Z,48.88
2023-05-18T16:39:57.846Z,48.63
2023-05-18T16:42:24.679Z,48.59
2023-05-18T16:44:51.388Z,48.88
2023-05-18T16:47:18.134Z,48.18
2023-05-18T16:49:45.669Z,48.30
2023-05-18T16:52:12.503Z,48.78
2023-05-18T16:54:39.224Z,50.17
2023-05-18T16:57:06.473Z,49.68
2023-05-18T16:59:34.586Z,49.51
2023-05-18T17:02:01.737Z,49.69
2023-05-18T17:04:28.644Z,50.85
2023-05-18T17:06:55.433Z,49.97
2023-05-18T17:09:22.225Z,50.69
2023-05-18T17:11:49.052Z,51.40
2023-05-18T17:14:15.714Z,51.44
2023-05-18T17:16:42.732Z,50.33
2023-05-18T17:19:09.757Z,50.28
2023-05-18T17:21:36.603Z,51.22
2023-05-18T17:24:03.446Z,50.67
2023-05-18T17:26:33.862Z,50.81
2023-05-18T17:29:00.671Z,51.63
2023-05-18T17:31:27.516Z,51.77
2023-05-18T17:33:54.873Z,51.63
2023-05-18T17:36:21.604Z,50.96
2023-05-18T17:38:48.726Z,51.33
2023-05-18T17:41:15.888Z,50.88
2023-05-18T17:43:42.979Z,50.94
2023-05-18T17:46:09.739Z,51.21
2023-05-18T17:48:36.407Z,51.25
2023-05-18T17:51:03.744Z,51.47
2023-05-18T17:53:31.346Z,51.63
2023-05-18T17:55:58.275Z,52.19
2023-05-18T17:58:25.105Z,52.43
2023-05-18T18:00:51.845Z,51.91
2023-05-18T18:03:20.707Z,52.75
2023-05-18T18:05:47.516Z,52.89
2023-05-18T18:08:16.483Z,53.13
2023-05-18T18:10:43.350Z,53.12
2023-05-18T18:13:10.104Z,53.33
2023-05-18T18:15:36.896Z,53.57
2023-05-18T18:18:03.843Z,54.52
2023-05-18T18:20:35.914Z,54.71
2023-05-18T18:23:03.503Z,54.31
2023-05-18T18:25:30.814Z,54.07
2023-05-18T18:27:58.315Z,54.25
2023-05-18T18:30:25.508Z,54.15
2023-05-18T18:32:52.695Z,55.26
2023-05-18T18:35:19.654Z,55.16
2023-05-18T18:37:47.685Z,55.85
2023-05-18T18:40:18.255Z,56.62
2023-05-18T18:42:45.095Z,56.71
2023-05-18T18:45:12.180Z,57.37
2023-05-18T18:47:39.442Z,57.00
2023-05-18T18:50:07.572Z,57.37
2023-05-18T18:52:34.309Z,57.87
2023-05-18T18:55:01.480Z,57.87
2023-05-18T18:57:28.344Z,58.45
2023-05-18T18:59:55.027Z,58.36
2023-05-18T19:02:22.762Z,59.08
2023-05-18T19:04:49.548Z,59.16
2023-05-18T19:07:16.319Z,59.35
2023-05-18T19:09:43.089Z,59.68
2023-05-18T19:12:10.454Z,59.90
2023-05-18T19:14:37.156Z,60.31
2023-05-18T19:17:04.031Z,60.24
2023-05-18T19:19:32.984Z,60.14
2023-05-18T19:21:59.796Z,61.08
2023-05-18T19:24:26.532Z,60.72
2023-05-18T19:26:53.216Z,61.53
2023-05-18T19:29:20.950Z,62.08
2023-05-18T19:31:47.789Z,61.46
2023-05-18T19:34:14.556Z,61.78
2023-05-18T19:36:41.229Z,62.25
2023-05-18T19:39:07.943Z,62.49
2023-05-18T19:41:35.513Z,62.93
2023-05-18T19:44:02.693Z,62.22
2023-05-18T19:46:29.534Z,62.61
2023-05-18T19:48:56.681Z,62.69
2023-05-18T19:51:24.053Z,63.40
2023-05-18T19:53:50.824Z,63.55
2023-05-18T19:56:17.708Z,63.65
2023-05-18T19:58:44.516Z,63.73
2023-05-18T20:01:11.312Z,63.87
2023-05-18T20:03:40.181Z,63.26
2023-05-18T20:06:09.139Z,63.88
2023-05-18T20:08:35.845Z,63.19
2023-05-18T20:11:02.605Z,64.59
2023-05-18T20:13:30.469Z,64.84
2023-05-18T20:16:00.763Z,64.71
2023-05-18T20:18:29.050Z,66.05
2023-05-18T20:20:56.557Z,65.78
2023-05-18T20:23:23.610Z,65.24
2023-05-18T20:25:50.501Z,65.48
2023-05-18T20:28:17.840Z,66.64
2023-05-18T20:30:44.667Z,65.79
2023-05-18T20:33:12.733Z,66.99
2023-05-18T20:35:39.654Z,67.12
2023-05-18T20:38:07.574Z,66.86
2023-05-18T20:40:38.188Z,67.46
2023-05-18T20:43:06.322Z,67.49
2023-05-18T20:45:33.166Z,67.89
2023-05-18T20:48:00.436Z,67.51
2023-05-18T20:50:27.472Z,68.95
2023-05-18T20:52:54.720Z,68.51
2023-05-18T20:55:21.733Z,69.52
2023-05-18T20:57:51.602Z,69.19
2023-05-18T21:00:18.702Z,69.74
2023-05-18T21:02:47.124Z,68.93
2023-05-18T21:05:14.715Z,69.74
2023-05-18T21:07:41.547Z,70.02
2023-05-18T21:10:09.090Z,70.68
2023-05-18T21:12:35.899Z,69.65
2023-05-18T21:15:03.152Z,69.93
2023-05-18T21:17:30.955Z,69.67
2023-05-18T21:19:57.733Z,69.80
2023-05-18T21:22:24.564Z,69.52
2023-05-18T21:24:51.357Z,70.63
2023-05-18T21:27:18.056Z,70.88
2023-05-18T21:29:44.774Z,70.63
2023-05-18T21:32:11.710Z,70.33
2023-05-18T21:34:39.574Z,71.69
2023-05-18T21:37:08.307Z,71.89
2023-05-18T21:39:35.195Z,71.70
2023-05-18T21:42:02.871Z,71.81
2023-05-18T21:44:29.660Z,71.56
2023-05-18T21:46:58.130Z,71.49
2023-05-18T21:49:25.006Z,72.19
2023-05-18T21:51:51.916Z,71.87
2023-05-18T21:54:18.619Z,73.00
2023-05-18T21:56:45.401Z,72.24
2023-05-18T21:59:12.218Z,72.78
2023-05-18T22:01:38.953Z,72.40
2023-05-18T22:04:05.715Z,72.29
2023-05-18T22:06:32.554Z,72.68
2023-05-18T22:08:59.264Z,72.25
2023-05-18T22:11:25.969Z,72.90
2023-05-18T22:13:52.643Z,72.72
2023-05-18T22:16:19.591Z,73.11
2023-05-18T22:18:46.304Z,73.33
2023-05-18T22:21:13.039Z,74.20
2023-05-18T22:23:39.864Z,73.33
2023-05-18T22:26:07.307Z,73.37
2023-05-18T22:28:34.160Z,73.49
2023-05-18T22:31:01.484Z,73.87
2023-05-18T22:33:28.425Z,75.17
2023-05-18T22:35:55.075Z,74.08
2023-05-18T22:38:21.831Z,73.82
2023-05-18T22:40:54.153Z,72.89
2023-05-18T22:43:21.559Z,73.68
2023-05-18T22:45:48.882Z,73.64
2023-05-18T22:48:15.702Z,74.35
2023-05-18T22:50:42.673Z,74.72
2023-05-18T22:53:10.628Z,74.59
2023-05-18T22:55:37.650Z,74.45
2023-05-18T22:58:04.500Z,74.71
2023-05-18T23:00:31.614Z,74.36
2023-05-18T23:02:59.019Z,75.49
2023-05-18T23:05:26.965Z,75.66
2023-05-18T23:07:53.767Z,75.39
2023-05-18T23:10:20.476Z,75.84
2023-05-18T23:12:48.565Z,76.30
2023-05-18T23:15:15.697Z,76.22
2023-05-18T23:17:42.559Z,75.89
2023-05-18T23:20:11.657Z,74.58
2023-05-18T23:22:38.420Z,75.15
2023-05-18T23:25:08.959Z,76.56
2023-05-18T23:27:36.210Z,76.00
2023-05-18T23:30:03.495Z,76.72
2023-05-18T23:32:30.840Z,76.82
2023-05-18T23:34:58.824Z,77.23
2023-05-18T23:37:26.470Z,77.73
2023-05-18T23:39:53.578Z,77.20
2023-05-18T23:42:20.844Z,78.17
2023-05-18T23:44:48.514Z,78.10
2023-05-18T23:47:16.295Z,78.18
2023-05-18T23:49:44.159Z,78.39
2023-05-18T23:52:11.600Z,77.15
2023-05-18T23:54:38.897Z,77.41
2023-05-18T23:57:05.995Z,76.94
2023-05-18T23:59:33.009Z,78.02
